createdAt,value
2018-09-12T00:00:20.572Z,9.40
2018-09-12T00:02:49.966Z,12.50
2018-09-12T00:05:19.369Z,11.33
2018-09-12T00:07:48.884Z,15.40
2018-09-12T00:10:18.286Z,10.13
2018-09-12T00:12:47.685Z,10.80
2018-09-12T00:15:17.209Z,11.03
2018-09-12T00:17:47.083Z,13.80
2018-09-12T00:20:16.487Z,11.03
2018-09-12T00:22:46.123Z,15.40
2018-09-12T00:25:15.764Z,10.30
2018-09-12T00:27:45.521Z,13.23
2018-09-12T00:30:14.921Z,10.00
2018-09-12T00:32:44.321Z,18.73
2018-09-12T00:35:13.839Z,13.17
2018-09-12T00:37:43.358Z,14.67
2018-09-12T00:40:13.603Z,14.40
2018-09-12T00:42:43.117Z,11.23
2018-09-12T00:45:12.401Z,16.03
2018-09-12T00:47:42.027Z,11.40
2018-09-12T00:50:12.516Z,16.87
2018-09-12T00:52:41.917Z,19.07
2018-09-12T00:55:11.317Z,11.90
2018-09-12T00:57:40.954Z,17.70
2018-09-12T01:00:10.355Z,12.40
2018-09-12T01:02:39.999Z,11.97
2018-09-12T01:05:10.593Z,12.10
2018-09-12T01:07:39.998Z,21.23
2018-09-12T01:10:09.873Z,16.50
2018-09-12T01:12:39.393Z,13.03
2018-09-12T01:15:08.910Z,15.67
2018-09-12T01:17:38.310Z,11.50
2018-09-12T01:20:07.708Z,13.53
2018-09-12T01:22:37.110Z,15.03
2018-09-12T01:25:06.389Z,13.90
2018-09-12T01:27:36.147Z,11.40
2018-09-12T01:30:09.687Z,15.63
2018-09-12T01:32:39.269Z,18.13
2018-09-12T01:35:09.025Z,12.00
2018-09-12T01:37:38.613Z,13.37
2018-09-12T01:40:08.186Z,18.83
2018-09-12T01:42:37.582Z,11.23
2018-09-12T01:45:07.105Z,13.70
2018-09-12T01:47:36.747Z,13.50
2018-09-12T01:50:06.506Z,12.93
2018-09-12T01:52:35.958Z,12.83
2018-09-12T01:55:05.301Z,11.63
2018-09-12T01:57:35.058Z,19.03
2018-09-12T02:00:04.341Z,21.20
2018-09-12T02:02:33.780Z,15.53
2018-09-12T02:05:03.288Z,17.80
2018-09-12T02:07:33.018Z,21.13
2018-09-12T02:10:02.536Z,12.23
2018-09-12T02:12:32.825Z,14.90
2018-09-12T02:15:02.416Z,23.50
2018-09-12T02:17:31.695Z,13.50
2018-09-12T02:20:01.334Z,34.67
2018-09-12T02:22:30.975Z,15.77
2018-09-12T02:25:00.374Z,17.60
2018-09-12T02:27:30.014Z,18.33
2018-09-12T02:29:59.532Z,18.47
2018-09-12T02:32:28.935Z,16.30
2018-09-12T02:34:58.213Z,21.57
2018-09-12T02:37:27.729Z,16.73
2018-09-12T02:39:57.131Z,20.27
2018-09-12T02:42:26.529Z,16.90
2018-09-12T02:44:56.893Z,26.93
2018-09-12T02:47:32.465Z,22.90
2018-09-12T02:50:01.929Z,17.37
2018-09-12T02:52:31.327Z,18.40
2018-09-12T02:55:00.728Z,17.00
2018-09-12T02:57:30.844Z,17.07
2018-09-12T03:00:00.366Z,18.40
2018-09-12T03:02:29.765Z,23.40
2018-09-12T03:04:59.212Z,24.97
2018-09-12T03:07:28.683Z,25.90
2018-09-12T03:09:58.089Z,19.00
2018-09-12T03:12:27.603Z,25.80
2018-09-12T03:14:57.245Z,23.00
2018-09-12T03:17:26.882Z,23.17
2018-09-12T03:19:56.400Z,34.60
2018-09-12T03:22:25.800Z,29.27
2018-09-12T03:24:56.158Z,31.83
2018-09-12T03:27:25.679Z,25.80
2018-09-12T03:29:55.078Z,30.10
2018-09-12T03:32:24.716Z,31.30
2018-09-12T03:34:54.475Z,34.67
2018-09-12T03:37:23.918Z,39.73
2018-09-12T03:39:53.275Z,37.03
2018-09-12T03:42:22.673Z,35.10
2018-09-12T03:44:51.952Z,35.07
2018-09-12T03:47:21.472Z,31.63
2018-09-12T03:49:50.935Z,30.70
2018-09-12T03:52:20.516Z,30.40
2018-09-12T03:54:50.155Z,35.00
2018-09-12T03:57:20.032Z,35.03
2018-09-12T03:59:49.431Z,30.07
2018-09-12T04:02:18.832Z,30.63
2018-09-12T04:04:48.350Z,31.63
2018-09-12T04:07:17.754Z,26.50
2018-09-12T04:09:47.266Z,37.53
2018-09-12T04:12:16.665Z,45.10
2018-09-12T04:14:46.428Z,44.57
2018-09-12T04:17:16.065Z,45.50
2018-09-12T04:19:45.463Z,46.77
2018-09-12T04:22:15.225Z,38.57
2018-09-12T04:24:45.047Z,41.17
2018-09-12T04:27:14.505Z,34.23
2018-09-12T04:29:43.903Z,34.37
2018-09-12T04:32:13.182Z,31.63
2018-09-12T04:34:42.583Z,35.97
2018-09-12T04:37:12.166Z,39.23
2018-09-12T04:39:41.622Z,83.43
2018-09-12T04:42:11.024Z,119.63
2018-09-12T04:44:40.660Z,200.40
2018-09-12T04:47:10.181Z,108.47
2018-09-12T04:49:39.465Z,119.20
2018-09-12T04:52:08.896Z,110.05
2018-09-12T04:54:38.389Z,93.57
2018-09-12T04:57:07.498Z,94.13
2018-09-12T04:59:37.094Z,72.70
2018-09-12T05:02:07.657Z,91.83
2018-09-12T05:04:37.054Z,79.83
2018-09-12T05:07:06.453Z,95.00
2018-09-12T05:09:36.211Z,72.33
2018-09-12T05:12:05.733Z,70.73
2018-09-12T05:14:35.010Z,67.43
2018-09-12T05:17:04.367Z,81.10
2018-09-12T05:19:34.531Z,62.43
2018-09-12T05:22:03.931Z,70.40
2018-09-12T05:24:33.329Z,69.00
2018-09-12T05:27:02.968Z,71.50
2018-09-12T05:29:32.421Z,66.62
2018-09-12T05:32:01.888Z,75.27
2018-09-12T05:34:31.530Z,68.90
2018-09-12T05:37:01.169Z,64.90
2018-09-12T05:39:30.565Z,73.27
2018-09-12T05:42:00.807Z,78.90
2018-09-12T05:44:30.326Z,83.87
2018-09-12T05:47:00.083Z,90.53
2018-09-12T05:49:29.725Z,84.57
2018-09-12T05:51:59.123Z,83.05
2018-09-12T05:54:28.643Z,97.80
2018-09-12T05:56:58.041Z,104.37
2018-09-12T05:59:27.442Z,95.60
2018-09-12T06:01:56.965Z,100.93
2018-09-12T06:04:26.721Z,79.07
2018-09-12T06:06:56.224Z,81.70
2018-09-12T06:09:25.998Z,104.37
2018-09-12T06:11:55.282Z,79.40
2018-09-12T06:14:24.918Z,83.17
2018-09-12T06:16:54.316Z,85.00
2018-09-12T06:19:23.956Z,72.70
2018-09-12T06:21:53.676Z,60.13
2018-09-12T06:24:23.356Z,48.97
2018-09-12T06:26:52.873Z,38.20
2018-09-12T06:29:22.402Z,28.90
2018-09-12T06:31:51.796Z,32.80
2018-09-12T06:34:21.554Z,22.63
2018-09-12T06:36:51.073Z,26.00
2018-09-12T06:39:20.712Z,16.10
2018-09-12T06:41:50.111Z,19.03
2018-09-12T06:44:19.510Z,16.60
2018-09-12T06:46:48.912Z,14.50
2018-09-12T06:49:18.428Z,16.90
2018-09-12T06:51:48.309Z,13.20
2018-09-12T06:54:17.829Z,13.03
2018-09-12T06:56:47.589Z,14.83
2018-09-12T06:59:17.345Z,12.10
2018-09-12T07:01:47.104Z,15.40
2018-09-12T07:04:16.864Z,16.03
2018-09-12T07:06:46.503Z,20.67
2018-09-12T07:09:15.904Z,12.80
2018-09-12T07:11:45.424Z,19.87
2018-09-12T07:14:14.962Z,14.53
2018-09-12T07:16:44.702Z,14.43
2018-09-12T07:19:15.285Z,13.37
2018-09-12T07:21:44.822Z,20.60
2018-09-12T07:24:14.111Z,15.77
2018-09-12T07:26:43.619Z,14.83
2018-09-12T07:29:13.260Z,13.77
2018-09-12T07:31:42.899Z,12.57
2018-09-12T07:34:12.218Z,14.63
2018-09-12T07:36:41.578Z,15.73
2018-09-12T07:39:12.896Z,21.67
2018-09-12T07:41:42.449Z,16.20
2018-09-12T07:44:11.934Z,15.23
2018-09-12T07:46:41.454Z,15.33
2018-09-12T07:49:12.002Z,16.33
2018-09-12T07:51:41.334Z,12.17
2018-09-12T07:54:11.584Z,13.57
2018-09-12T07:56:41.274Z,14.43
2018-09-12T07:59:11.260Z,12.93
2018-09-12T08:01:41.211Z,13.83
2018-09-12T08:04:10.610Z,20.50
2018-09-12T08:06:40.370Z,12.87
2018-09-12T08:09:11.572Z,11.97
2018-09-12T08:11:41.209Z,13.80
2018-09-12T08:14:10.848Z,18.80
2018-09-12T08:16:40.247Z,12.33
2018-09-12T08:19:09.800Z,13.57
2018-09-12T08:21:39.648Z,13.70
2018-09-12T08:24:09.526Z,13.07
2018-09-12T08:26:39.173Z,10.90
2018-09-12T08:29:08.806Z,15.17
2018-09-12T08:31:38.130Z,12.93
2018-09-12T08:34:07.606Z,14.30
2018-09-12T08:36:37.002Z,11.60
2018-09-12T08:39:08.202Z,11.70
2018-09-12T08:41:37.601Z,16.43
2018-09-12T08:44:07.481Z,13.57
2018-09-12T08:46:36.880Z,12.40
2018-09-12T08:49:06.402Z,11.60
2018-09-12T08:51:36.396Z,11.20
2018-09-12T08:54:05.796Z,15.27
2018-09-12T09:05:15.033Z,16.27
2018-09-12T09:07:44.326Z,13.83
2018-09-12T09:10:13.833Z,12.73
2018-09-12T09:12:43.596Z,12.13
2018-09-12T09:15:12.993Z,11.30
2018-09-12T09:17:42.393Z,12.20
2018-09-12T09:20:11.914Z,12.13
2018-09-12T09:22:42.030Z,10.00
2018-09-12T09:25:11.551Z,9.90
2018-09-12T09:27:41.190Z,10.80
2018-09-12T09:30:10.709Z,19.10
2018-09-12T09:32:40.375Z,9.93
2018-09-12T09:35:10.659Z,10.57
2018-09-12T09:37:40.466Z,10.73
2018-09-12T09:40:11.066Z,10.00
2018-09-12T09:42:40.746Z,11.73
2018-09-12T09:45:10.344Z,7.47
2018-09-12T09:47:39.864Z,7.70
2018-09-12T09:50:09.384Z,9.10
2018-09-12T09:52:38.902Z,7.97
2018-09-12T09:55:08.462Z,7.53
2018-09-12T09:57:38.661Z,8.13
2018-09-12T10:00:14.598Z,6.17
2018-09-12T10:02:48.023Z,9.07
2018-09-12T10:05:22.817Z,8.30
2018-09-12T10:07:57.020Z,8.13
2018-09-12T10:10:26.658Z,7.00
2018-09-12T10:12:56.298Z,8.10
2018-09-12T10:15:26.536Z,6.53
2018-09-12T10:17:56.179Z,7.40
2018-09-12T10:20:25.817Z,6.40
2018-09-12T10:22:55.335Z,5.27
2018-09-12T10:25:24.976Z,7.23
2018-09-12T10:27:54.493Z,6.80
2018-09-12T10:30:24.013Z,9.20
2018-09-12T10:32:53.293Z,6.37
2018-09-12T10:35:22.809Z,7.77
2018-09-12T10:37:52.333Z,6.97
2018-09-12T10:40:21.610Z,7.60
2018-09-12T10:42:51.014Z,6.57
2018-09-12T10:45:20.528Z,6.70
2018-09-12T10:47:50.049Z,6.80
2018-09-12T10:50:19.470Z,6.23
2018-09-12T10:52:48.968Z,7.50
2018-09-12T10:55:18.244Z,7.67
2018-09-12T10:57:47.645Z,6.53
2018-09-12T11:00:17.046Z,6.10
2018-09-12T11:02:46.810Z,5.50
2018-09-12T11:05:16.206Z,6.77
2018-09-12T11:07:45.726Z,7.30
2018-09-12T11:10:15.248Z,6.17
2018-09-12T11:12:45.845Z,6.10
2018-09-12T11:15:15.419Z,7.43
2018-09-12T11:17:45.001Z,8.67
2018-09-12T11:20:14.523Z,6.53
2018-09-12T11:22:44.038Z,6.10
2018-09-12T11:25:13.376Z,6.17
2018-09-12T11:27:43.680Z,6.97
2018-09-12T11:30:14.047Z,11.93
2018-09-12T11:32:43.441Z,8.67
2018-09-12T11:35:13.079Z,7.60
2018-09-12T11:37:42.600Z,9.53
2018-09-12T11:40:12.143Z,11.90
2018-09-12T11:42:42.837Z,8.10
2018-09-12T11:45:12.235Z,7.43
2018-09-12T11:47:41.513Z,8.60
2018-09-12T11:50:10.918Z,7.60
2018-09-12T11:52:40.313Z,29.70
2018-09-12T11:55:09.712Z,24.50
2018-09-12T11:57:39.230Z,14.63
2018-09-12T12:00:08.870Z,7.97
2018-09-12T12:02:38.631Z,6.77
2018-09-12T12:05:08.150Z,7.37
2018-09-12T12:07:37.430Z,22.63
2018-09-12T12:10:07.190Z,10.80
2018-09-12T12:12:36.712Z,11.93
2018-09-12T12:15:06.826Z,17.27
2018-09-12T12:17:36.467Z,21.60
2018-09-12T12:20:06.606Z,39.03
2018-09-12T12:22:36.225Z,15.47
2018-09-12T12:25:05.623Z,14.50
2018-09-12T12:27:35.144Z,42.00
2018-09-12T12:30:04.783Z,54.87
2018-09-12T12:32:34.183Z,10.67
2018-09-12T12:35:04.182Z,11.30
2018-09-12T12:37:34.303Z,9.00
2018-09-12T12:40:03.703Z,41.47
2018-09-12T12:42:33.098Z,50.80
2018-09-12T12:45:02.989Z,7.60
2018-09-12T12:47:32.503Z,7.77
2018-09-12T12:50:02.863Z,34.63
2018-09-12T12:52:33.217Z,7.13
2018-09-12T12:55:02.502Z,7.90
2018-09-12T12:57:31.900Z,129.83
2018-09-12T13:00:01.296Z,8.40
2018-09-12T13:02:30.699Z,8.70
2018-09-12T13:05:00.934Z,9.27
2018-09-12T13:07:30.456Z,9.30
2018-09-12T13:10:00.452Z,90.63
2018-09-12T13:12:29.976Z,15.93
2018-09-12T13:14:59.493Z,12.77
2018-09-12T13:17:29.012Z,7.10
2018-09-12T13:19:58.411Z,8.67
2018-09-12T13:22:27.929Z,11.07
2018-09-12T13:24:57.450Z,16.80
2018-09-12T13:27:27.251Z,8.90
2018-09-12T13:29:56.973Z,8.63
2018-09-12T13:32:27.566Z,8.47
2018-09-12T13:34:56.968Z,68.13
2018-09-12T13:37:26.847Z,13.80
2018-09-12T13:39:56.246Z,47.87
2018-09-12T13:42:25.883Z,6.93
2018-09-12T13:44:55.285Z,52.03
2018-09-12T13:47:25.287Z,10.20
2018-09-12T13:49:54.684Z,18.00
2018-09-12T13:52:24.328Z,6.57
2018-09-12T13:54:53.879Z,17.73
2018-09-12T13:57:23.483Z,19.70
2018-09-12T13:59:52.883Z,55.90
2018-09-12T14:02:22.519Z,15.93
2018-09-12T14:04:52.040Z,5.90
2018-09-12T14:07:21.567Z,8.73
2018-09-12T14:09:51.081Z,42.07
2018-09-12T14:12:20.604Z,7.00
2018-09-12T14:14:49.879Z,26.60
2018-09-12T14:17:19.396Z,15.33
2018-09-12T14:19:48.916Z,8.10
2018-09-12T14:22:18.316Z,7.27
2018-09-12T14:24:48.079Z,4.90
2018-09-12T14:27:17.593Z,45.47
2018-09-12T14:29:46.996Z,46.87
2018-09-12T14:32:16.432Z,6.40
2018-09-12T14:34:46.275Z,4.23
2018-09-12T14:37:15.914Z,4.90
2018-09-12T14:39:45.431Z,10.97
2018-09-12T14:42:14.832Z,13.20
2018-09-12T14:44:45.072Z,12.33
2018-09-12T14:47:14.598Z,5.90
2018-09-12T14:49:44.110Z,4.50
2018-09-12T14:52:14.563Z,11.73
2018-09-12T14:54:43.988Z,5.00
2018-09-12T14:57:13.748Z,4.90
2018-09-12T14:59:43.495Z,7.20
2018-09-12T15:02:12.785Z,4.33
2018-09-12T15:04:42.479Z,5.03
2018-09-12T15:07:12.066Z,10.33
2018-09-12T15:09:41.823Z,54.90
2018-09-12T15:12:11.226Z,5.03
2018-09-12T15:14:41.462Z,36.80
2018-09-12T15:17:10.982Z,34.50
2018-09-12T15:19:40.381Z,25.17
2018-09-12T15:22:09.905Z,19.47
2018-09-12T15:24:39.540Z,6.73
2018-09-12T15:27:08.937Z,20.93
2018-09-12T15:29:38.337Z,9.53
2018-09-12T15:32:07.856Z,9.47
2018-09-12T15:34:37.258Z,7.20
2018-09-12T15:37:06.934Z,22.07
2018-09-12T15:39:36.303Z,8.00
2018-09-12T15:42:05.825Z,6.53
2018-09-12T15:44:35.334Z,7.17
2018-09-12T15:47:04.745Z,31.40
2018-09-12T15:49:34.257Z,9.57
2018-09-12T15:52:04.013Z,14.63
2018-09-12T15:54:33.410Z,7.43
2018-09-12T15:57:03.062Z,6.30
2018-09-12T15:59:32.569Z,9.43
2018-09-12T16:02:02.093Z,10.17
2018-09-12T16:04:31.729Z,7.40
2018-09-12T16:07:01.246Z,7.87
2018-09-12T16:09:30.649Z,33.93
2018-09-12T16:12:00.045Z,9.70
2018-09-12T16:14:29.327Z,8.57
2018-09-12T16:16:59.513Z,9.77
2018-09-12T16:19:29.329Z,10.87
2018-09-12T16:21:59.034Z,11.27
2018-09-12T16:24:28.483Z,13.00
2018-09-12T16:26:57.897Z,11.77
2018-09-12T16:29:27.287Z,12.10
2018-09-12T16:31:56.923Z,19.43
2018-09-12T16:34:26.463Z,15.03
2018-09-12T16:36:56.204Z,14.23
2018-09-12T16:39:25.729Z,14.80
2018-09-12T16:41:55.240Z,16.43
2018-09-12T16:44:25.209Z,13.67
2018-09-12T16:46:54.880Z,27.47
2018-09-12T16:49:24.396Z,17.83
2018-09-12T16:51:53.921Z,11.63
2018-09-12T16:54:23.558Z,12.90
2018-09-12T16:56:53.153Z,10.17
2018-09-12T16:59:22.957Z,11.77
2018-09-12T17:01:52.597Z,10.37
2018-09-12T17:04:21.996Z,14.27
2018-09-12T17:06:51.762Z,11.00
2018-09-12T17:09:21.283Z,18.83
2018-09-12T17:11:50.897Z,11.77
2018-09-12T17:14:20.227Z,10.43
2018-09-12T17:16:49.830Z,11.93
2018-09-12T17:19:19.366Z,16.37
2018-09-12T17:21:48.921Z,13.97
2018-09-12T17:24:18.751Z,10.80
2018-09-12T17:26:48.278Z,11.03
2018-09-12T17:29:17.669Z,15.00
2018-09-12T17:31:47.067Z,14.87
2018-09-12T17:34:16.711Z,14.97
2018-09-12T17:36:46.227Z,16.47
2018-09-12T17:39:15.746Z,17.90
2018-09-12T17:41:45.390Z,14.60
2018-09-12T17:44:15.143Z,14.23
2018-09-12T17:46:44.546Z,15.97
2018-09-12T17:49:13.945Z,16.07
2018-09-12T17:51:44.062Z,13.77
2018-09-12T17:54:13.705Z,15.83
2018-09-12T17:56:43.463Z,18.27
2018-09-12T18:39:39.493Z,6.17
2018-09-12T18:42:08.889Z,7.47
2018-09-12T18:44:38.412Z,11.80
2018-09-12T18:47:07.928Z,9.27
2018-09-12T18:49:37.571Z,8.33
2018-09-12T18:52:07.209Z,7.27
2018-09-12T18:54:36.849Z,8.30
2018-09-12T18:57:06.491Z,8.80
2018-09-12T18:59:36.011Z,10.20
2018-09-12T19:02:05.647Z,7.90
2018-09-12T19:04:35.047Z,8.27
2018-09-12T19:07:04.887Z,10.87
2018-09-12T19:09:34.568Z,9.57
2018-09-12T19:12:04.205Z,8.60
2018-09-12T19:14:33.721Z,10.13
2018-09-12T19:17:03.176Z,8.10
2018-09-12T19:19:32.639Z,13.87
2018-09-12T19:22:02.402Z,13.07
2018-09-12T19:24:32.044Z,8.40
2018-09-12T19:27:01.677Z,10.10
2018-09-12T19:29:31.080Z,25.13
2018-09-12T19:32:00.841Z,9.73
2018-09-12T19:34:30.238Z,9.17
2018-09-12T19:36:59.515Z,11.33
2018-09-12T19:39:29.036Z,17.73
2018-09-12T19:41:58.447Z,16.23
2018-09-12T19:44:28.195Z,27.77
2018-09-12T19:46:57.751Z,11.43
2018-09-12T19:49:27.834Z,10.40
2018-09-12T19:51:57.596Z,11.43
2018-09-12T19:54:27.234Z,10.60
2018-09-12T19:56:56.631Z,13.03
2018-09-12T19:59:26.155Z,12.23
2018-09-12T20:01:56.538Z,10.77
2018-09-12T20:04:26.149Z,10.60
2018-09-12T20:06:56.016Z,11.80
2018-09-12T20:09:25.477Z,10.70
2018-09-12T20:11:55.670Z,9.80
2018-09-12T20:14:25.336Z,6.90
2018-09-12T20:16:54.948Z,14.80
2018-09-12T20:19:24.346Z,11.60
2018-09-12T20:21:53.869Z,10.17
2018-09-12T20:24:23.745Z,12.87
2018-09-12T20:26:53.264Z,9.70
2018-09-12T20:29:22.904Z,10.47
2018-09-12T20:31:52.303Z,8.10
2018-09-12T20:34:21.703Z,11.73
2018-09-12T20:36:51.343Z,18.43
2018-09-12T20:39:20.983Z,20.83
2018-09-12T20:41:50.862Z,8.50
2018-09-12T20:44:20.502Z,6.17
2018-09-12T20:46:50.142Z,9.27
2018-09-12T20:49:19.658Z,5.50
2018-09-12T20:51:49.427Z,10.10
2018-09-12T20:54:18.699Z,7.83
2018-09-12T20:56:48.338Z,5.67
2018-09-12T20:59:17.914Z,6.43
2018-09-12T21:01:48.437Z,5.97
2018-09-12T21:04:17.974Z,6.57
2018-09-12T21:06:47.496Z,8.00
2018-09-12T21:09:17.132Z,6.07
2018-09-12T21:11:46.774Z,6.30
2018-09-12T21:14:16.412Z,6.60
2018-09-12T21:16:45.810Z,5.73
2018-09-12T21:19:15.210Z,8.13
2018-09-12T21:21:44.862Z,6.43
2018-09-12T21:24:14.251Z,6.97
2018-09-12T21:26:43.770Z,6.27
2018-09-12T21:29:13.171Z,6.57
2018-09-12T21:31:42.688Z,8.27
2018-09-12T21:34:13.046Z,6.90
2018-09-12T21:36:42.567Z,6.57
2018-09-12T21:39:12.084Z,12.70
2018-09-12T21:41:41.606Z,6.50
2018-09-12T21:44:11.365Z,6.27
2018-09-12T21:46:41.244Z,10.63
2018-09-12T21:49:10.526Z,5.10
2018-09-12T21:51:40.045Z,5.97
2018-09-12T21:54:09.563Z,6.47
2018-09-12T21:56:39.108Z,7.30
2018-09-12T21:59:08.841Z,6.77
2018-09-12T22:01:38.482Z,6.97
2018-09-12T22:04:07.881Z,9.20
2018-09-12T22:06:37.998Z,6.93
2018-09-12T22:09:10.761Z,7.57
2018-09-12T22:11:40.284Z,7.30
2018-09-12T22:14:09.678Z,8.80
2018-09-12T22:16:39.195Z,8.07
2018-09-12T22:19:08.717Z,8.93
2018-09-12T22:21:38.476Z,9.30
2018-09-12T22:24:08.115Z,11.30
2018-09-12T22:26:37.757Z,11.70
2018-09-12T22:29:08.352Z,14.17
2018-09-12T22:31:37.873Z,17.13
2018-09-12T22:34:07.519Z,13.13
2018-09-12T22:36:37.272Z,14.63
2018-09-12T22:39:09.434Z,14.00
2018-09-12T22:41:39.912Z,16.30
2018-09-12T22:44:09.431Z,15.10
2018-09-12T22:46:39.189Z,15.00
2018-09-12T22:49:08.593Z,16.03
2018-09-12T22:51:38.107Z,20.73
2018-09-12T22:54:07.508Z,18.80
2018-09-12T22:56:37.027Z,14.37
2018-09-12T22:59:06.544Z,19.93
2018-09-12T23:01:35.826Z,16.00
2018-09-12T23:04:05.347Z,19.67
2018-09-12T23:06:34.867Z,17.07
2018-09-12T23:09:05.828Z,19.90
2018-09-12T23:11:36.305Z,18.43
2018-09-12T23:14:05.823Z,22.17
2018-09-12T23:16:35.265Z,15.77
2018-09-12T23:19:04.862Z,18.27
2018-09-12T23:21:34.384Z,16.97
2018-09-12T23:24:03.781Z,19.60
2018-09-12T23:26:33.418Z,23.80
2018-09-12T23:29:02.820Z,16.50
2018-09-12T23:31:32.219Z,15.60
2018-09-12T23:34:01.737Z,20.57
2018-09-12T23:36:31.135Z,18.50
2018-09-12T23:39:00.656Z,26.13
2018-09-12T23:41:30.177Z,17.63
2018-09-12T23:43:59.584Z,19.77
2018-09-12T23:46:29.223Z,17.60
2018-09-12T23:48:58.974Z,20.93
2018-09-12T23:51:28.496Z,18.20
2018-09-12T23:53:58.011Z,20.97
2018-09-12T23:56:27.893Z,27.33
2018-09-12T23:58:57.413Z,22.03
